createdAt,value
2024-02-05T00:00:03.317Z,1020.59
2024-02-05T00:16:03.952Z,1020.42
2024-02-05T00:31:04.661Z,1020.36
2024-02-05T00:46:05.481Z,1020.25
2024-02-05T01:00:06.050Z,1020.32
2024-02-05T01:16:01.824Z,1020.25
2024-02-05T01:31:02.327Z,1020.22
2024-02-05T01:46:02.143Z,1019.98
2024-02-05T02:00:03.603Z,1019.85
2024-02-05T02:16:03.970Z,1019.78
2024-02-05T02:31:04.877Z,1019.71
2024-02-05T02:46:05.338Z,1019.58
2024-02-05T03:00:05.916Z,1019.71
2024-02-05T03:16:01.724Z,1019.71
2024-02-05T03:31:02.443Z,1019.75
2024-02-05T03:46:03.175Z,1019.75
2024-02-05T04:00:03.879Z,1019.78
2024-02-05T04:16:04.554Z,1019.78
2024-02-05T04:31:05.478Z,1019.75
2024-02-05T04:46:05.972Z,1019.65
2024-02-05T05:00:01.780Z,1019.65
2024-02-05T05:16:01.909Z,1019.54
2024-02-05T05:31:02.640Z,1019.68
2024-02-05T05:46:03.294Z,1019.65
2024-02-05T06:00:04.093Z,1019.75
2024-02-05T06:16:04.333Z,1019.81
2024-02-05T06:31:05.181Z,1019.95
2024-02-05T06:46:05.679Z,1019.95
2024-02-05T06:59:40.325Z,1020.05
2024-02-05T07:00:04.540Z,1020.05
2024-02-05T07:05:50.812Z,1019.92
2024-02-05T07:10:36.167Z,1020.05
2024-02-05T07:24:17.412Z,1020.22
2024-02-05T07:26:02.890Z,1020.25
2024-02-05T07:45:18.021Z,1020.39
2024-02-05T08:00:03.980Z,1020.69
2024-02-05T08:16:03.654Z,1020.86
2024-02-05T08:31:05.104Z,1020.9
2024-02-05T08:46:19.938Z,1020.8
2024-02-05T09:00:06.320Z,1020.76
2024-02-05T09:16:02.292Z,1020.73
2024-02-05T09:31:11.410Z,1020.69
2024-02-05T09:46:03.780Z,1020.63
2024-02-05T10:00:04.304Z,1020.66
2024-02-05T10:16:04.904Z,1020.53
2024-02-05T10:31:05.171Z,1020.39
2024-02-05T10:46:05.566Z,1020.39
2024-02-05T11:00:05.828Z,1020.05
2024-02-05T11:16:06.126Z,1019.78
2024-02-05T11:31:06.869Z,1019.68
2024-02-05T11:46:02.537Z,1019.48
2024-02-05T12:00:03.332Z,1019.24
2024-02-05T12:16:04.174Z,1019.17
2024-02-05T12:31:05.074Z,1018.97
2024-02-05T12:46:05.680Z,1018.87
2024-02-05T13:00:06.071Z,1018.56
2024-02-05T13:16:06.427Z,1018.29
2024-02-05T13:31:01.875Z,1018.26
2024-02-05T13:46:02.558Z,1018.26
2024-02-05T14:00:03.097Z,1018.32
2024-02-05T14:16:04.133Z,1018.46
2024-02-05T14:31:04.450Z,1018.49
2024-02-05T14:46:04.822Z,1018.49
2024-02-05T15:00:05.283Z,1018.63
2024-02-05T15:16:05.913Z,1018.76
2024-02-05T15:31:06.190Z,1018.93
2024-02-05T15:46:04.037Z,1019.04
2024-02-05T16:00:02.044Z,1019.17
2024-02-05T16:16:02.400Z,1019.34
2024-02-05T16:31:03.004Z,1019.51
2024-02-05T16:46:03.644Z,1019.71
2024-02-05T17:00:04.246Z,1019.88
2024-02-05T17:16:05.040Z,1019.88
2024-02-05T17:31:05.852Z,1020.12
2024-02-05T17:46:01.738Z,1020.25
2024-02-05T18:00:02.428Z,1020.36
2024-02-05T18:16:02.995Z,1020.46
2024-02-05T18:31:03.715Z,1020.56
2024-02-05T18:46:04.793Z,1020.49
2024-02-05T19:00:04.982Z,1020.63
2024-02-05T19:16:05.863Z,1020.76
2024-02-05T19:31:06.321Z,1020.83
2024-02-05T19:46:01.787Z,1020.9
2024-02-05T20:00:02.259Z,1021
2024-02-05T20:16:03.036Z,1020.86
2024-02-05T20:31:03.500Z,1020.93
2024-02-05T20:46:03.979Z,1021.07
2024-02-05T21:00:04.514Z,1021
2024-02-05T21:16:05.398Z,1021.03
2024-02-05T21:31:05.018Z,1021.03
2024-02-05T21:46:01.734Z,1020.9
2024-02-05T22:00:02.552Z,1020.97
2024-02-05T22:16:03.204Z,1020.93
2024-02-05T22:31:03.348Z,1020.86
2024-02-05T22:46:04.710Z,1020.9
2024-02-05T23:00:05.167Z,1020.86
2024-02-05T23:16:04.997Z,1021
2024-02-05T23:31:01.546Z,1021
2024-02-05T23:46:02.087Z,1020.8
